Flight Track Log - Related Links

Times and Time Zones

All times are in EDT time to prevent confusion due to time zone crossing. See the AAL2461 flight status page for this flight to view local times or setup timezone preferences in your user account.

Time Position Orientation Groundspeed Altitude Reporting Facility
EDT Latitude Longitude Course Direction KTS MPH feet Rate Location/Type
Sat 06:48:35 PM 32.8833 -97.0500 293° West 158 182 1,800  Level Dallas / Fort Worth TRACON
Sat 06:49:36 PM 32.8333 -97.0500 180° South 198 228 3,800 2,262 Climbing Dallas / Fort Worth TRACON
Sat 06:50:00 PM 32.6913 -97.0761 248° West  Level FlightAware Approximate
Sat 06:50:37 PM 32.7667 -97.0667 192° South 249 287 6,400  Level Dallas / Fort Worth TRACON
Sat 06:51:00 PM 32.6833 -97.1984 270° West  Level FlightAware Approximate
Sat 06:52:00 PM 32.7113 -97.3143 293° West  Level FlightAware Approximate
Sat 06:52:15 PM 32.7683 -97.1961 271° West 304 350 10,600  Level Fort Worth Center
Sat 06:53:00 PM 32.7527 -97.4283 293° West  Level FlightAware Approximate
Sat 06:53:15 PM 32.7894 -97.3097 282° West 311 358 12,200  Level Fort Worth Center
Sat 06:54:15 PM 32.8083 -97.4133 282° West 347 399 15,000 2,800 Climbing Fort Worth Center
Sat 06:55:15 PM 32.8311 -97.5419 282° West 360 414 17,800 2,500 Climbing Fort Worth Center
Sat 06:56:15 PM 32.8539 -97.6706 282° West 377 434 20,000 2,100 Climbing Fort Worth Center
Sat 06:57:15 PM 32.8661 -97.7819 277° West 377 434 22,000 2,150 Climbing Fort Worth Center
Sat 06:58:15 PM 32.8656 -97.9278 270° West 394 453 24,300 2,100 Climbing Fort Worth Center
Sat 06:59:15 PM 32.8672 -98.0589 271° West 405 466 26,200 1,850 Climbing Fort Worth Center
Sat 07:00:15 PM 32.8622 -98.1950 268° West 405 466 28,000 1,750 Climbing Fort Worth Center
Sat 07:01:15 PM 32.8614 -98.3136 270° West 405 466 29,700 1,000 Climbing Fort Worth Center
Sat 07:02:15 PM 32.8603 -98.4472 269° West 405 466 30,000 150 Climbing Fort Worth Center
Sat 07:03:15 PM 32.8572 -98.5733 268° West 398 458 30,000  Level Fort Worth Center
Sat 07:04:15 PM 32.8558 -98.7069 269° West 403 464 30,000  Level Fort Worth Center
Sat 07:05:15 PM 32.8525 -98.8378 268° West 403 464 30,000  Level Fort Worth Center
Sat 07:06:15 PM 32.8508 -98.9689 269° West 403 464 30,000  Level Fort Worth Center
Sat 07:07:15 PM 32.8492 -99.1025 269° West 403 464 30,000  Level Fort Worth Center
Sat 07:08:15 PM 32.8453 -99.2333 268° West 403 464 30,000  Level Fort Worth Center
Sat 07:09:15 PM 32.8431 -99.3667 269° West 403 464 30,000  Level Fort Worth Center
Sat 07:10:15 PM 32.8411 -99.5003 269° West 403 464 30,000  Level Fort Worth Center
Sat 07:11:15 PM 32.8514 -99.6317 275° West 403 464 30,000  Level Fort Worth Center
Sat 07:12:15 PM 32.9014 -99.7517 296° West 398 458 30,000  Level Fort Worth Center
Sat 07:13:15 PM 32.9469 -99.8742 294° West 403 464 30,000  Level Fort Worth Center
Sat 07:14:15 PM 32.9906 -99.9942 293° West 403 464 30,000  Level Fort Worth Center
Sat 07:15:15 PM 33.0381 -100.1169 295° West 403 464 30,000  Level Fort Worth Center
Sat 07:16:15 PM 33.0833 -100.2372 294° West 397 457 30,000  Level Fort Worth Center
Sat 07:17:15 PM 33.1306 -100.3578 295° West 397 457 30,000  Level Fort Worth Center
Sat 07:18:15 PM 33.1758 -100.4786 294° West 397 457 30,000  Level Fort Worth Center
Sat 07:19:15 PM 33.2228 -100.6044 294° West 402 463 30,000  Level Fort Worth Center
Sat 07:20:15 PM 33.2675 -100.7278 293° West 402 463 30,000  Level Fort Worth Center
Sat 07:21:15 PM 33.3142 -100.8511 294° West 402 463 30,000  Level Fort Worth Center
Sat 07:22:15 PM 33.3589 -100.9697 294° West 402 463 30,000  Level Fort Worth Center
Sat 07:23:15 PM 33.4056 -101.0886 295° West 402 463 30,000  Level Fort Worth Center
Sat 07:24:15 PM 33.4558 -101.2253 294° West 402 463 30,000  Level Fort Worth Center
Sat 07:25:15 PM 33.4919 -101.3339 292° West 402 463 30,000  Level Fort Worth Center
Sat 07:26:15 PM 33.5442 -101.4683 295° West 402 463 30,000  Level Fort Worth Center
Sat 07:27:15 PM 33.5844 -101.5772 294° West 402 463 30,000  Level Fort Worth Center
Sat 07:28:15 PM 33.6303 -101.7042 293° West 408 470 30,000  Level Fort Worth Center
Sat 07:29:15 PM 33.6781 -101.8289 295° West 408 470 30,000  Level Fort Worth Center
Sat 07:30:15 PM 33.7342 -101.9492 299° West 408 470 30,000  Level Fort Worth Center
Sat 07:31:15 PM 33.8264 -102.0539 317° Northwest 413 475 30,000  Level Fort Worth Center
Sat 07:32:15 PM 33.9103 -102.1508 316° Northwest 420 483 30,000  Level Fort Worth Center
Sat 07:33:15 PM 33.9964 -102.2508 316° Northwest 420 483 30,000  Level Fort Worth Center
Sat 07:35:13 PM 34.1517 -102.4336 316° Northwest 421 484 30,000  Level Albuquerque Center
Sat 07:36:14 PM 34.2308 -102.5264 316° Northwest 419 482 30,000  Level Albuquerque Center
Sat 07:37:15 PM 34.3314 -102.6439 316° Northwest 418 481 30,000  Level Albuquerque Center
Sat 07:38:16 PM 34.4147 -102.7439 315° West 420 483 30,000  Level Albuquerque Center
Sat 07:39:17 PM 34.4817 -102.8561 306° West 413 475 30,000  Level Albuquerque Center
Sat 07:40:18 PM 34.5025 -102.9856 281° West 414 476 30,000  Level Albuquerque Center
Sat 07:41:19 PM 34.5153 -103.1261 276° West 414 476 30,000  Level Albuquerque Center
Sat 07:42:20 PM 34.5306 -103.2669 278° West 416 479 30,000  Level Albuquerque Center
Sat 07:43:22 PM 34.5442 -103.4086 277° West 418 481 30,000  Level Albuquerque Center
Sat 07:44:23 PM 34.5581 -103.5500 277° West 418 481 30,000  Level Albuquerque Center
Sat 07:45:24 PM 34.5717 -103.6931 277° West 421 484 30,000  Level Albuquerque Center
Sat 07:46:25 PM 34.5853 -103.8339 277° West 418 481 30,000  Level Albuquerque Center
Sat 07:47:26 PM 34.5986 -103.9747 277° West 416 479 30,000  Level Albuquerque Center
Sat 07:48:27 PM 34.6117 -104.1136 277° West 411 473 30,000  Level Albuquerque Center
Sat 07:49:28 PM 34.6236 -104.2533 276° West 410 472 30,000  Level Albuquerque Center
Sat 07:50:30 PM 34.6386 -104.4158 276° West 411 473 30,000  Level Albuquerque Center
Sat 07:51:31 PM 34.6511 -104.5531 276° West 406 467 30,000  Level Albuquerque Center
Sat 07:52:32 PM 34.6642 -104.6917 277° West 407 468 30,000  Level Albuquerque Center
Sat 07:53:33 PM 34.6764 -104.8281 276° West 404 465 30,000 439 Level Albuquerque Center
Sat 07:54:35 PM 34.6892 -104.9653 276° West 403 464 30,900 1,171 Climbing Albuquerque Center
Sat 07:55:36 PM 34.7006 -105.1017 276° West 403 464 32,400 1,525 Climbing Albuquerque Center
Sat 07:56:37 PM 34.7131 -105.2392 276° West 404 465 34,000 780 Climbing Albuquerque Center
Sat 07:57:39 PM 34.7231 -105.3769 275° West 405 466 34,000 -293 Level Albuquerque Center
Sat 07:58:40 PM 34.7350 -105.5119 276° West 400 460 33,400 -787 Descending Albuquerque Center
Sat 07:59:41 PM 34.7464 -105.6447 276° West 394 453 32,400 -683 Descending Albuquerque Center
Sat 08:00:43 PM 34.7561 -105.7769 275° West 390 449 32,000 -195 Descending Albuquerque Center
Sat 08:01:44 PM 34.7669 -105.9081 276° West 387 445 32,000  Level Albuquerque Center
Sat 08:02:45 PM 34.7758 -106.0394 275° West 387 445 32,000  Level Albuquerque Center
Sat 08:03:47 PM 34.7869 -106.1708 276° West 387 445 32,000  Level Albuquerque Center
Sat 08:04:48 PM 34.7975 -106.3169 275° West 389 448 32,000  Level Albuquerque Center
Sat 08:05:49 PM 34.8058 -106.4489 274° West 389 448 32,000  Level Albuquerque Center
Sat 08:06:51 PM 34.8147 -106.5789 275° West 387 445 32,000  Level Albuquerque Center
Sat 08:07:52 PM 34.8231 -106.7108 274° West 387 445 32,000  Level Albuquerque Center
Sat 08:08:54 PM 34.8331 -106.8447 275° West 390 449 32,000  Level Albuquerque Center
Sat 08:09:55 PM 34.8428 -106.9792 275° West 394 453 32,000  Level Albuquerque Center
Sat 08:10:57 PM 34.8556 -107.1228 276° West 387 445 32,000  Level Albuquerque Center
Sat 08:11:58 PM 34.8608 -107.2458 273° West 396 456 32,000  Level Albuquerque Center
Sat 08:12:59 PM 34.8700 -107.3781 275° West 396 456 32,000  Level Albuquerque Center
Sat 08:14:01 PM 34.8778 -107.5094 274° West 391 450 32,000  Level Albuquerque Center
Sat 08:15:02 PM 34.8858 -107.6406 274° West 388 447 32,000  Level Albuquerque Center
Sat 08:16:04 PM 34.8933 -107.7697 274° West 385 443 32,000  Level Albuquerque Center
Sat 08:17:05 PM 34.9019 -107.9197 274° West 385 443 32,000  Level Albuquerque Center
Sat 08:18:06 PM 34.9083 -108.0439 274° West 383 441 32,000  Level Albuquerque Center
Sat 08:19:08 PM 34.9181 -108.1903 275° West 386 444 32,000  Level Albuquerque Center
Sat 08:20:09 PM 34.9244 -108.3169 274° West 389 448 32,000  Level Albuquerque Center
Sat 08:21:11 PM 34.9314 -108.4422 274° West 388 447 32,000  Level Albuquerque Center
Sat 08:22:12 PM 34.9400 -108.5894 274° West 390 449 32,000  Level Albuquerque Center
Sat 08:23:14 PM 34.9472 -108.7153 274° West 389 448 32,000  Level Albuquerque Center
Sat 08:24:15 PM 34.9542 -108.8631 273° West 389 448 32,000  Level Albuquerque Center
Sat 08:25:16 PM 34.9606 -108.9914 274° West 393 452 32,000  Level Albuquerque Center
Sat 08:26:18 PM 34.9675 -109.1186 274° West 392 451 32,000  Level Albuquerque Center
Sat 08:27:19 PM 34.9619 -109.2703 267° West 399 459 32,000  Level Albuquerque Center
Sat 08:28:20 PM 34.9525 -109.4056 265° West 410 472 32,000  Level Albuquerque Center
Sat 08:29:22 PM 34.9403 -109.5567 264° West 404 465 32,000  Level Albuquerque Center
Sat 08:30:23 PM 34.9322 -109.6875 266° West 403 464 32,000  Level Albuquerque Center
Sat 08:31:25 PM 34.9233 -109.8214 265° West 408 470 32,000  Level Albuquerque Center
Sat 08:32:26 PM 34.9125 -109.9767 265° West 411 473 32,000  Level Albuquerque Center
Sat 08:33:27 PM 34.9025 -110.1075 265° West 409 471 32,000  Level Albuquerque Center
Sat 08:34:29 PM 34.8944 -110.2439 266° West 416 479 32,000  Level Albuquerque Center
Sat 08:35:30 PM 34.8797 -110.3981 263° West 413 475 32,000  Level Albuquerque Center
Sat 08:36:31 PM 34.8619 -110.5286 261° West 411 473 32,000  Level Albuquerque Center
Sat 08:37:33 PM 34.8428 -110.6794 261° West 406 467 32,000  Level Albuquerque Center
Sat 08:38:34 PM 34.8239 -110.8133 260° West 406 467 32,000  Level Albuquerque Center
Sat 08:39:35 PM 34.8067 -110.9481 261° West 407 468 32,000  Level Albuquerque Center
Sat 08:40:36 PM 34.7894 -111.0850 261° West 409 471 32,000  Level Albuquerque Center
Sat 08:41:38 PM 34.7739 -111.2239 262° West 413 475 32,000  Level Albuquerque Center
Sat 08:42:39 PM 34.7564 -111.3608 261° West 414 476 32,000  Level Albuquerque Center
Sat 08:43:40 PM 34.7386 -111.4981 261° West 413 475 32,000  Level Albuquerque Center
Sat 08:44:42 PM 34.7203 -111.6356 261° West 414 476 32,000  Level Albuquerque Center
Sat 08:45:43 PM 34.6989 -111.8000 261° West 414 476 32,000  Level Albuquerque Center
Sat 08:46:44 PM 34.6808 -111.9383 261° West 416 479 32,000  Level Albuquerque Center
Sat 08:47:45 PM 34.6614 -112.0767 260° West 417 480 32,000  Level Albuquerque Center
Sat 08:48:47 PM 34.6439 -112.2156 261° West 419 482 32,000  Level Albuquerque Center
Sat 08:49:48 PM 34.6244 -112.3583 261° West 418 481 32,000  Level Albuquerque Center
Sat 08:50:49 PM 34.6058 -112.4981 261° West 419 482 32,000  Level Albuquerque Center
Sat 08:51:50 PM 34.5858 -112.6381 260° West 420 483 32,000  Level Albuquerque Center
Sat 08:52:52 PM 34.5669 -112.7786 261° West 422 486 32,000  Level Albuquerque Center
Sat 08:53:53 PM 34.5467 -112.9189 260° West 422 486 32,000  Level Albuquerque Center
Sat 08:54:54 PM 34.5267 -113.0597 260° West 424 488 32,000  Level Albuquerque Center
Sat 08:55:55 PM 34.5050 -113.2006 259° West 425 489 32,000  Level Albuquerque Center
Sat 08:56:57 PM 34.4806 -113.3689 260° West 425 489 32,000  Level Albuquerque Center
Sat 08:57:58 PM 34.4592 -113.5111 260° West 427 491 32,000  Level Albuquerque Center
Sat 08:58:59 PM 34.4369 -113.6622 260° West 426 490 32,000  Level Albuquerque Center
Sat 09:00:00 PM 34.4164 -113.8039 260° West 426 490 32,000  Level Albuquerque Center
Sat 09:01:01 PM 34.3958 -113.9461 260° West 428 493 32,000  Level Albuquerque Center
Sat 09:02:03 PM 34.3742 -114.0861 259° West 425 489 32,000  Level Albuquerque Center
Sat 09:03:04 PM 34.3519 -114.2283 259° West 427 491 32,000  Level Albuquerque Center
Sat 09:04:05 PM 34.3311 -114.3708 260° West 428 493 32,000  Level Albuquerque Center
Sat 09:05:02 PM 34.3103 -114.5081 260° West 428 493 32,000 712 Level Los Angeles Center
Sat 09:06:03 PM 34.2881 -114.6486 259° West 426 490 33,400 976 Climbing Los Angeles Center
Sat 09:07:05 PM 34.2664 -114.7878 259° West 422 486 34,000 293 Climbing Los Angeles Center
Sat 09:08:06 PM 34.2456 -114.9253 260° West 419 482 34,000  Level Los Angeles Center
Sat 09:09:08 PM 34.2250 -115.0639 260° West 419 482 34,000  Level Los Angeles Center
Sat 09:10:09 PM 34.2028 -115.2033 259° West 423 487 34,000  Level Los Angeles Center
Sat 09:11:11 PM 34.1778 -115.3708 260° West 424 488 34,000  Level Los Angeles Center
Sat 09:12:12 PM 34.1544 -115.5125 259° West 428 493 34,000 -98 Level Los Angeles Center
Sat 09:13:14 PM 34.1308 -115.6519 258° West 427 491 33,800 -683 Descending Los Angeles Center
Sat 09:14:15 PM 34.1097 -115.7953 260° West 432 497 32,600 -1,220 Descending Los Angeles Center
Sat 09:15:17 PM 34.0892 -115.9358 260° West 431 496 31,300 -1,220 Descending Los Angeles Center
Sat 09:16:18 PM 34.0656 -116.0783 259° West 432 497 30,100 -1,220 Descending Los Angeles Center
Sat 09:17:20 PM 34.0442 -116.2258 260° West 437 503 28,800 -1,512 Descending Los Angeles Center
Sat 09:18:21 PM 34.0178 -116.4042 260° West 448 516 27,000 -1,463 Descending Los Angeles Center
Sat 09:19:23 PM 34.0003 -116.5519 262° West 448 516 25,800 -1,707 Descending Los Angeles Center
Sat 09:20:24 PM 33.9892 -116.6956 265° West 437 503 23,500 -2,195 Descending Los Angeles Center
Sat 09:21:26 PM 33.9769 -116.8319 264° West 419 482 21,300 -2,021 Descending Los Angeles Center
Sat 09:21:59 PM 33.9667 -116.9000 260° West 350 403 20,300 -1,742 Descending Southern California TRACON
Sat 09:22:59 PM 33.9667 -117.0167 270° West 331 381 18,600 -1,650 Descending Southern California TRACON
Sat 09:23:59 PM 33.9500 -117.1333 260° West 334 384 17,000 -1,300 Descending Southern California TRACON
Sat 09:24:59 PM 33.9500 -117.2333 270° West 330 380 16,000 -1,000 Descending Southern California TRACON
Sat 09:25:59 PM 33.9333 -117.3500 260° West 325 374 15,000 -800 Descending Southern California TRACON
Sat 09:26:59 PM 33.9500 -117.4333 284° West 292 336 14,400 -750 Descending Southern California TRACON
Sat 09:27:59 PM 33.9833 -117.5333 292° West 284 327 13,500 -950 Descending Southern California TRACON
Sat 09:28:59 PM 34.0167 -117.6167 296° West 365 420 12,500 -1,350 Descending Southern California TRACON
Sat 09:29:59 PM 34.0000 -117.7167 259° West 284 327 10,800 -1,600 Descending Southern California TRACON
Sat 09:30:59 PM 34.0000 -117.8167 270° West 293 337 9,300 -1,450 Descending Southern California TRACON
Sat 09:31:59 PM 33.9833 -117.9167 259° West 292 336 7,900 -1,400 Descending Southern California TRACON
Sat 09:32:59 PM 33.9667 -118.0167 259° West 283 326 6,500 -1,550 Descending Southern California TRACON
Sat 09:33:59 PM 33.9667 -118.1000 270° West 266 306 4,800 -1,585 Descending Southern California TRACON
Sat 09:34:45 PM 33.9597 -118.1625 262° West 269 310 3,700 -1,290 Descending Los Angeles Center
Sat 09:35:46 PM 33.9528 -118.2367 264° West 246 283 2,500 -1,180 Descending Los Angeles Center

Login

Don't have an account? Register now (free) for customized features, flight alerts, and more!